Terminal Aerodrome Forecast
Issued by NWS Riverton, WY

Home | Current Version | Previous Version | Text Only | Print | Product List | Glossary On
Versions: 1 2 3 4 5 6 7 8 9 10 11 12 13 14 15 16 17 18 19 20
000
FTUS45 KRIW 241400 AAA
TAFRIW
TAF AMD
KRIW 241416Z 2414/2512 04008KT 6SM -RA SCT010 OVC028
      TEMPO 2414/2418 3SM -RA BR OVC012
     FM241800 01011KT P6SM VCSH SCT025 OVC050
     FM242100 VRB10KT P6SM VCTS SCT025 BKN050CB
     FM250300 34006KT P6SM -SHRA SCT018 OVC030=

USA.gov is the U.S. government's official web portal to all federal, state and local government web resources and services.